Time;durP1;ratioP1;P1;durP2;ratioP2;P2;SDS_P1;SDS_P2;PMS_P1;PMS_P2;Temp;Humidity;BMP_temperature;BMP_pressure;BME280_temperature;BME280_humidity;BME280_pressure;Samples;Min_cycle;Max_cycle;Signal;HPM_P1;HPM_P2
2022/01/19 00:00:38;;;;;;;11.73;7.20;;;;;;;-0.16;100.00;97703.34;5058353;28;20561;-77
2022/01/19 00:03:03;;;;;;;16.93;7.10;;;;;;;-0.19;100.00;97693.09;5052428;28;20024;-78
2022/01/19 00:05:29;;;;;;;13.57;8.20;;;;;;;-0.21;100.00;97690.56;5051439;28;20463;-79
2022/01/19 00:07:55;;;;;;;14.30;7.77;;;;;;;-0.22;100.00;97688.88;5081349;28;20085;-78
2022/01/19 00:10:27;;;;;;;12.33;7.50;;;;;;;-0.35;100.00;97664.38;5054937;28;20029;-79
2022/01/19 00:12:54;;;;;;;19.73;8.47;;;;;;;-0.45;100.00;97653.53;5054693;28;20067;-78
2022/01/19 00:15:22;;;;;;;12.27;8.60;;;;;;;-0.42;100.00;97632.75;5068280;28;20963;-78
2022/01/19 00:17:48;;;;;;;14.23;8.33;;;;;;;-0.43;100.00;97627.66;5053243;28;20482;-78
2022/01/19 00:20:14;;;;;;;16.10;9.27;;;;;;;-0.44;100.00;97631.97;5074740;28;20469;-78
2022/01/19 00:22:40;;;;;;;15.37;8.97;;;;;;;-0.48;100.00;97627.81;5071486;28;20447;-78
2022/01/19 00:25:07;;;;;;;17.40;10.67;;;;;;;-0.53;100.00;97628.00;5071098;28;20064;-77
2022/01/19 00:27:33;;;;;;;17.73;9.77;;;;;;;-0.48;100.00;97627.81;5057573;28;20112;-79
2022/01/19 00:29:59;;;;;;;17.10;10.20;;;;;;;-0.42;100.00;97624.16;5062221;28;21002;-78
2022/01/19 00:32:25;;;;;;;15.90;8.87;;;;;;;-0.40;100.00;97627.50;5048544;28;20577;-78
2022/01/19 00:34:51;;;;;;;16.60;10.70;;;;;;;-0.56;100.00;97635.84;5076035;28;20404;-78
2022/01/19 00:37:17;;;;;;;15.93;11.13;;;;;;;-0.57;100.00;97635.91;5043726;28;20454;-77
2022/01/19 00:39:43;;;;;;;21.70;10.87;;;;;;;-0.56;100.00;97632.44;5066538;28;20032;-78
2022/01/19 00:42:08;;;;;;;17.37;11.80;;;;;;;-0.58;100.00;97623.88;5052996;28;20031;-77
2022/01/19 00:44:34;;;;;;;17.77;10.57;;;;;;;-0.69;100.00;97623.44;5055524;28;20039;-78
2022/01/19 00:47:00;;;;;;;15.27;9.47;;;;;;;-0.65;100.00;97627.59;5052994;28;20581;-78
2022/01/19 00:49:25;;;;;;;15.50;9.90;;;;;;;-0.62;100.00;97622.31;5055900;28;20021;-78
2022/01/19 00:51:51;;;;;;;16.50;9.57;;;;;;;-0.65;100.00;97612.09;5047714;28;20582;-78
2022/01/19 00:54:17;;;;;;;16.70;9.13;;;;;;;-0.52;100.00;97603.00;5046922;28;20036;-80
2022/01/19 00:56:42;;;;;;;15.97;9.67;;;;;;;-0.57;100.00;97603.19;5042280;28;20651;-78
2022/01/19 00:59:08;;;;;;;16.10;9.57;;;;;;;-0.61;100.00;97603.31;5075514;28;20047;-78
2022/01/19 01:01:34;;;;;;;14.57;9.50;;;;;;;-0.72;100.00;97612.31;5040399;28;20032;-77
2022/01/19 01:03:59;;;;;;;19.77;10.67;;;;;;;-0.73;100.00;97610.63;5066663;28;20183;-78
2022/01/19 01:06:25;;;;;;;17.20;8.57;;;;;;;-0.82;100.00;97602.38;5048705;28;20401;-78
2022/01/19 01:08:51;;;;;;;13.40;8.40;;;;;;;-0.91;100.00;97600.13;5056807;28;20393;-78
2022/01/19 01:11:17;;;;;;;16.17;9.60;;;;;;;-0.92;100.00;97594.13;5050694;28;20036;-78
2022/01/19 01:16:40;;;;;;;13.97;9.03;;;;;;;-0.98;100.00;97587.44;5057139;28;20466;-78
2022/01/19 01:19:09;;;;;;;15.40;9.10;;;;;;;-1.02;100.00;97588.44;5059405;28;21108;-78
2022/01/19 01:21:37;;;;;;;14.23;8.40;;;;;;;-0.95;100.00;97596.81;5071043;28;20450;-78
2022/01/19 01:24:03;;;;;;;15.33;9.27;;;;;;;-1.00;100.00;97585.81;5050026;28;20522;-78
2022/01/19 01:26:30;;;;;;;14.13;7.60;;;;;;;-1.05;100.00;97572.22;5065235;28;21239;-77
2022/01/19 01:28:56;;;;;;;13.87;7.87;;;;;;;-1.03;100.00;97566.09;5053376;28;20447;-77
2022/01/19 01:31:22;;;;;;;16.10;7.70;;;;;;;-0.80;100.00;97562.69;5037577;28;20478;-77
2022/01/19 01:33:47;;;;;;;16.47;7.13;;;;;;;-0.71;100.00;97564.91;5046092;28;20797;-78
2022/01/19 01:36:15;;;;;;;16.30;7.27;;;;;;;-0.65;100.00;97556.09;5044316;28;20039;-78
2022/01/19 01:38:40;;;;;;;12.07;6.63;;;;;;;-0.80;100.00;97570.44;5074335;28;20028;-78
2022/01/19 01:41:12;;;;;;;13.23;7.30;;;;;;;-0.89;100.00;97578.50;5081643;28;20435;-77
2022/01/19 01:43:41;;;;;;;15.57;7.13;;;;;;;-0.96;100.00;97595.13;5047896;28;20463;-78
2022/01/19 01:46:15;;;;;;;16.70;8.07;;;;;;;-0.95;100.00;97594.22;5083847;28;20476;-79
2022/01/19 01:48:45;;;;;;;14.63;8.57;;;;;;;-0.99;100.00;97595.25;5038549;28;20470;-77
2022/01/19 01:53:57;;;;;;;18.30;7.90;;;;;;;-0.94;100.00;97598.47;5071471;28;20471;-78
2022/01/19 01:56:24;;;;;;;16.77;8.50;;;;;;;-0.98;100.00;97594.34;5052919;28;20538;-76
2022/01/19 01:58:57;;;;;;;14.73;8.25;;;;;;;-0.97;100.00;97588.28;5051427;28;20851;-76
2022/01/19 02:01:28;;;;;;;18.17;7.57;;;;;;;-0.98;100.00;97584.84;5084816;28;20055;-76
2022/01/19 02:03:54;;;;;;;13.93;7.37;;;;;;;-0.95;100.00;97589.06;5047469;28;20486;-76
2022/01/19 02:06:31;;;;;;;14.17;6.30;;;;;;;-0.94;100.00;97590.75;5064315;28;20454;-76
2022/01/19 02:09:17;;;;;;;14.67;7.40;;;;;;;-0.95;100.00;97579.56;5044136;28;20549;-76
2022/01/19 02:23:03;;;;;;;15.83;6.00;;;;;;;-1.39;100.00;97564.81;5057119;28;20465;-76
2022/01/19 02:25:35;;;;;;;11.47;6.80;;;;;;;-1.46;100.00;97567.63;5035879;28;20471;-76
2022/01/19 02:42:07;;;;;;;18.30;7.80;;;;;;;-1.77;100.00;97554.91;5039008;28;20047;-75
2022/01/19 02:49:51;;;;;;;16.27;6.63;;;;;;;-1.92;100.00;97542.53;5065411;28;20485;-76
2022/01/19 02:52:17;;;;;;;16.53;8.00;;;;;;;-1.92;100.00;97539.94;5054991;28;21010;-75
2022/01/19 02:54:43;;;;;;;19.47;9.23;;;;;;;-2.00;100.00;97539.38;5061782;28;20454;-76
2022/01/19 02:57:12;;;;;;;11.80;6.50;;;;;;;-2.05;100.00;97536.09;5063127;28;20545;-75
2022/01/19 03:10:18;;;;;;;17.83;6.40;;;;;;;-2.29;100.00;97520.53;5052818;28;20657;-78
2022/01/19 03:12:44;;;;;;;13.10;6.23;;;;;;;-2.30;100.00;97512.84;5047616;28;20527;-77
2022/01/19 03:15:12;;;;;;;13.33;6.47;;;;;;;-2.30;100.00;97508.53;5064857;28;20442;-78
2022/01/19 03:17:38;;;;;;;14.90;7.47;;;;;;;-2.23;100.00;97504.03;5042064;28;20463;-78
2022/01/19 03:20:06;;;;;;;13.13;6.47;;;;;;;-2.19;100.00;97510.75;5056699;28;20540;-78
2022/01/19 03:22:39;;;;;;;18.53;6.87;;;;;;;-2.24;100.00;97507.50;5082871;28;20921;-78
2022/01/19 03:25:12;;;;;;;17.27;7.53;;;;;;;-2.24;100.00;97500.63;5052582;28;21378;-78
2022/01/19 03:27:45;;;;;;;12.73;6.77;;;;;;;-2.29;100.00;97499.91;5078589;28;20453;-78
2022/01/19 03:30:13;;;;;;;15.93;6.40;;;;;;;-2.32;100.00;97494.84;5057552;28;21227;-78
2022/01/19 03:32:39;;;;;;;17.53;6.73;;;;;;;-2.27;100.00;97494.72;5053209;28;20547;-78
2022/01/19 03:35:05;;;;;;;14.67;6.87;;;;;;;-2.29;100.00;97492.19;5045261;28;20512;-78
2022/01/19 03:37:31;;;;;;;15.37;7.60;;;;;;;-2.30;100.00;97492.25;5053204;28;20527;-76
2022/01/19 03:39:56;;;;;;;12.67;6.90;;;;;;;-2.33;100.00;97492.34;5052888;28;20462;-78
2022/01/19 03:42:22;;;;;;;16.07;7.10;;;;;;;-2.33;100.00;97495.75;5069991;28;20085;-78
2022/01/19 03:44:48;;;;;;;18.37;6.93;;;;;;;-2.33;100.00;97490.59;5040638;28;20029;-78
2022/01/19 03:47:14;;;;;;;15.50;6.73;;;;;;;-2.28;100.00;97491.31;5049087;28;20040;-78
2022/01/19 03:49:40;;;;;;;16.43;7.13;;;;;;;-2.28;100.00;97485.28;5074121;28;20481;-78
2022/01/19 03:52:06;;;;;;;16.53;7.37;;;;;;;-2.31;100.00;97483.69;5052054;28;20044;-77
2022/01/19 03:54:40;;;;;;;13.77;7.63;;;;;;;-2.32;100.00;97481.97;5052692;28;20040;-78
2022/01/19 03:57:07;;;;;;;13.98;7.35;;;;;;;-2.36;100.00;97480.38;5043895;28;20899;-77
2022/01/19 03:59:33;;;;;;;16.20;7.53;;;;;;;-2.34;100.00;97464.91;5056075;28;20097;-78
2022/01/19 04:01:59;;;;;;;16.77;7.33;;;;;;;-2.40;100.00;97468.50;5064735;28;20463;-78
2022/01/19 04:07:08;;;;;;;18.23;7.23;;;;;;;-2.48;100.00;97471.34;5070204;28;20442;-78
2022/01/19 04:09:41;;;;;;;15.33;7.30;;;;;;;-2.52;100.00;97462.00;5050089;28;20496;-77
2022/01/19 04:12:09;;;;;;;19.07;7.30;;;;;;;-2.45;100.00;97457.50;5051940;28;20516;-77
2022/01/19 04:14:35;;;;;;;15.23;7.10;;;;;;;-2.48;100.00;97455.00;5076561;28;20458;-77
2022/01/19 04:17:04;;;;;;;12.63;6.70;;;;;;;-2.58;100.00;97449.34;5064975;28;20446;-78
2022/01/19 04:19:34;;;;;;;13.50;8.03;;;;;;;-2.65;100.00;97434.94;5075968;28;20036;-78
2022/01/19 04:22:10;;;;;;;14.90;7.50;;;;;;;-2.71;100.00;97433.44;5065236;28;20473;-77
2022/01/19 04:24:36;;;;;;;17.93;7.23;;;;;;;-2.74;100.00;97414.66;5066735;28;20462;-75
2022/01/19 04:29:54;;;;;;;14.82;6.30;;;;;;;-2.73;100.00;97406.03;5073120;28;20470;-75
2022/01/19 04:32:28;;;;;;;24.20;13.50;;;;;;;-2.79;100.00;97389.06;5066197;28;20043;-75
2022/01/19 04:34:54;;;;;;;19.67;8.67;;;;;;;-2.82;100.00;97381.44;5048089;28;21038;-75
2022/01/19 04:37:30;;;;;;;17.27;7.03;;;;;;;-2.80;100.00;97386.53;5082430;28;20516;-75
2022/01/19 05:07:24;;;;;;;13.17;6.37;;;;;;;-2.51;100.00;97334.09;5082322;28;20807;-75
2022/01/19 05:15:19;;;;;;;14.57;6.67;;;;;;;-2.44;100.00;97330.41;5061714;28;20455;-75
2022/01/19 05:17:46;;;;;;;17.27;7.07;;;;;;;-2.47;100.00;97315.06;5047086;28;20455;-75
2022/01/19 05:20:12;;;;;;;15.73;6.03;;;;;;;-2.44;100.00;97313.22;5043307;28;20461;-75
2022/01/19 05:22:38;;;;;;;21.27;6.43;;;;;;;-2.53;100.00;97312.69;5054128;28;20562;-76
2022/01/19 05:25:10;;;;;;;16.87;6.07;;;;;;;-2.54;100.00;97305.88;5075594;28;20528;-75
2022/01/19 05:28:05;;;;;;;17.23;6.53;;;;;;;-2.54;100.00;97306.69;5064009;28;20470;-75
2022/01/19 05:30:31;;;;;;;16.10;6.23;;;;;;;-2.59;100.00;97295.72;5036559;28;20479;-75
2022/01/19 05:32:59;;;;;;;17.17;7.27;;;;;;;-2.56;100.00;97297.34;5078379;28;20040;-76
2022/01/19 05:35:24;;;;;;;16.83;6.30;;;;;;;-2.57;100.00;97303.41;5052238;28;20463;-75
2022/01/19 05:38:05;;;;;;;11.53;5.87;;;;;;;-2.66;100.00;97318.25;5061276;28;20033;-75
2022/01/19 05:40:31;;;;;;;12.40;5.97;;;;;;;-2.68;100.00;97314.06;5060664;28;20558;-75
2022/01/19 05:42:58;;;;;;;16.17;6.97;;;;;;;-2.72;100.00;97308.16;5081574;28;20596;-75
2022/01/19 05:45:24;;;;;;;17.27;7.00;;;;;;;-2.75;100.00;97308.28;5055022;28;20462;-75
2022/01/19 05:47:52;;;;;;;13.87;5.90;;;;;;;-2.81;100.00;97308.47;5044813;28;20462;-75
2022/01/19 05:50:17;;;;;;;13.03;7.00;;;;;;;-2.84;100.00;97300.84;5031417;28;20467;-76
2022/01/19 05:52:51;;;;;;;20.60;8.10;;;;;;;-2.89;100.00;97305.31;5023692;28;20041;-75
2022/01/19 05:55:17;;;;;;;21.27;8.33;;;;;;;-2.90;100.00;97306.19;5031934;28;20079;-76
2022/01/19 05:57:43;;;;;;;21.30;7.47;;;;;;;-2.84;100.00;97298.28;5055776;28;20443;-76
2022/01/19 06:00:09;;;;;;;15.83;6.70;;;;;;;-2.67;100.00;97300.28;5080847;28;21060;-76
2022/01/19 06:02:52;;;;;;;19.33;6.97;;;;;;;-2.64;100.00;97295.03;5058228;28;20513;-76
2022/01/19 06:05:28;;;;;;;22.83;9.20;;;;;;;-2.56;100.00;97292.19;5064269;28;20470;-76
2022/01/19 06:08:16;;;;;;;19.60;8.20;;;;;;;-2.45;100.00;97287.50;5064430;28;20486;-76
2022/01/19 06:10:55;;;;;;;16.60;9.40;;;;;;;-2.34;100.00;97269.09;5052425;28;20482;-76
2022/01/19 06:13:22;;;;;;;18.77;9.23;;;;;;;-2.34;100.00;97279.41;5052250;28;20521;-76
2022/01/19 06:15:49;;;;;;;15.60;8.47;;;;;;;-2.27;100.00;97273.97;5052193;28;20457;-75
2022/01/19 06:18:16;;;;;;;16.80;8.30;;;;;;;-2.24;100.00;97278.19;5062967;28;20451;-75
2022/01/19 06:20:45;;;;;;;20.13;9.13;;;;;;;-2.19;100.00;97271.13;5035490;28;20490;-76
2022/01/19 06:23:13;;;;;;;21.93;9.73;;;;;;;-2.07;100.00;97267.25;5036169;28;20486;-77
2022/01/19 06:25:49;;;;;;;21.43;10.00;;;;;;;-2.05;100.00;97263.72;5052471;28;20455;-75
2022/01/19 06:28:15;;;;;;;18.00;9.83;;;;;;;-2.02;100.00;97263.59;5045545;28;20830;-75
2022/01/19 06:30:41;;;;;;;25.27;10.40;;;;;;;-2.04;100.00;97259.44;5046937;28;20110;-75
2022/01/19 06:33:07;;;;;;;19.83;11.40;;;;;;;-2.01;100.00;97251.53;5056029;28;20073;-76
2022/01/19 06:35:33;;;;;;;27.37;14.30;;;;;;;-1.98;100.00;97254.88;5057029;28;20791;-75
2022/01/19 06:38:10;;;;;;;17.90;11.03;;;;;;;-1.87;100.00;97248.47;5061529;28;20082;-76
2022/01/19 06:40:46;;;;;;;23.73;11.90;;;;;;;-1.79;100.00;97249.00;5069380;28;21086;-76
2022/01/19 06:43:12;;;;;;;19.17;11.63;;;;;;;-1.75;100.00;97245.41;5050355;28;20562;-76
2022/01/19 06:45:37;;;;;;;21.47;11.80;;;;;;;-1.69;100.00;97251.19;5054325;28;20069;-75
2022/01/19 06:48:03;;;;;;;20.40;11.80;;;;;;;-1.71;100.00;97237.53;5042443;28;20033;-78
2022/01/19 06:50:31;;;;;;;18.33;11.27;;;;;;;-1.68;100.00;97239.97;5040989;28;20029;-76
2022/01/19 06:52:59;;;;;;;21.90;11.93;;;;;;;-1.72;100.00;97235.81;5039948;28;20490;-75
2022/01/19 06:55:25;;;;;;;21.80;11.80;;;;;;;-1.71;100.00;97242.69;5036408;28;20519;-76
2022/01/19 06:57:53;;;;;;;21.93;12.40;;;;;;;-1.53;100.00;97235.13;5040358;28;20491;-75
2022/01/19 07:00:29;;;;;;;20.10;12.87;;;;;;;-1.58;100.00;97229.28;5070101;28;20612;-75
2022/01/19 07:03:04;;;;;;;21.13;12.60;;;;;;;-1.62;100.00;97244.03;5044859;28;20596;-76
2022/01/19 07:05:44;;;;;;;24.27;12.73;;;;;;;-1.62;100.00;97245.78;5062499;28;20447;-76
2022/01/19 07:08:28;;;;;;;25.20;12.33;;;;;;;-1.58;100.00;97242.19;5057357;28;20796;-76
2022/01/19 07:10:54;;;;;;;24.17;13.00;;;;;;;-1.56;100.00;97230.91;5054967;28;20481;-76
2022/01/19 07:13:22;;;;;;;24.23;13.87;;;;;;;-1.57;100.00;97224.09;5071215;28;20051;-77
2022/01/19 07:15:49;;;;;;;24.43;14.33;;;;;;;-1.64;100.00;97212.34;5059243;28;20466;-76
2022/01/19 07:18:15;;;;;;;20.40;13.00;;;;;;;-1.76;100.00;97213.63;5053469;28;20039;-77
2022/01/19 07:20:41;;;;;;;27.50;13.27;;;;;;;-1.79;100.00;97218.06;5035370;28;20483;-76
2022/01/19 07:23:07;;;;;;;28.13;14.37;;;;;;;-1.79;100.00;97212.91;5064238;28;20455;-77
2022/01/19 07:25:33;;;;;;;23.50;13.93;;;;;;;-1.81;100.00;97215.56;5043284;28;20498;-76
2022/01/19 07:27:59;;;;;;;23.57;14.90;;;;;;;-1.81;100.00;97215.56;5054018;28;20060;-75
2022/01/19 07:30:28;;;;;;;26.20;14.93;;;;;;;-1.74;100.00;97219.59;5049648;28;20479;-76
2022/01/19 07:32:54;;;;;;;24.43;14.70;;;;;;;-1.70;100.00;97208.25;5046050;28;20525;-76
2022/01/19 07:35:20;;;;;;;24.73;15.27;;;;;;;-1.65;100.00;97218.38;5046606;28;20459;-77
2022/01/19 07:37:49;;;;;;;25.33;14.90;;;;;;;-1.65;100.00;97213.22;5057701;28;20490;-78
2022/01/19 07:40:16;;;;;;;25.00;15.27;;;;;;;-1.63;100.00;97218.31;5044938;28;20455;-79
2022/01/19 07:42:42;;;;;;;25.67;14.90;;;;;;;-1.55;100.00;97213.69;5062114;28;20462;-79
2022/01/19 07:45:08;;;;;;;24.77;15.87;;;;;;;-1.52;100.00;97218.72;5053515;28;20483;-77
2022/01/19 07:48:06;;;;;;;32.70;17.13;;;;;;;-1.55;100.00;97211.09;5017293;28;20389;-76
2022/01/19 07:51:01;;;;;;;36.20;19.67;;;;;;;-1.52;100.00;97214.41;4993839;28;20477;-76
2022/01/19 07:53:47;;;;;;;34.10;19.90;;;;;;;-1.54;100.00;97220.50;5061465;28;20422;-77
2022/01/19 07:56:46;;;;;;;40.23;22.70;;;;;;;-1.48;100.00;97222.84;5054155;28;20466;-76
2022/01/19 07:59:25;;;;;;;37.47;22.17;;;;;;;-1.47;100.00;97219.41;5059888;28;20569;-76
2022/01/19 08:01:58;;;;;;;35.87;20.13;;;;;;;-1.46;100.00;97221.91;5048057;28;20515;-76
2022/01/19 08:04:44;;;;;;;34.73;20.73;;;;;;;-1.44;100.00;97208.97;5057465;28;21215;-77
2022/01/19 08:07:14;;;;;;;33.20;20.20;;;;;;;-1.40;100.00;97210.50;5069188;28;20839;-76
2022/01/19 08:09:40;;;;;;;38.20;20.27;;;;;;;-1.38;100.00;97213.00;5035398;28;20466;-76
2022/01/19 08:12:08;;;;;;;33.70;20.87;;;;;;;-1.37;100.00;97207.81;5048082;28;20462;-76
2022/01/19 08:14:39;;;;;;;35.63;21.03;;;;;;;-1.36;100.00;97204.31;5049788;28;20450;-76
2022/01/19 08:17:05;;;;;;;34.80;21.27;;;;;;;-1.35;100.00;97205.97;5065083;28;21008;-76
2022/01/19 08:19:34;;;;;;;33.17;18.37;;;;;;;-1.39;100.00;97207.00;5055943;28;20048;-76
2022/01/19 08:22:02;;;;;;;29.40;16.47;;;;;;;-1.32;100.00;97203.28;5040589;28;20454;-76
2022/01/19 08:24:30;;;;;;;28.67;17.77;;;;;;;-1.32;100.00;97192.97;5062097;28;20466;-76
2022/01/19 08:26:57;;;;;;;35.37;21.73;;;;;;;-1.29;100.00;97179.94;5049618;28;20457;-76
2022/01/19 08:29:27;;;;;;;35.83;20.33;;;;;;;-1.22;100.00;97171.03;5071921;28;20462;-76
2022/01/19 08:31:58;;;;;;;34.03;18.53;;;;;;;-1.17;100.00;97176.03;5045497;28;20485;-76
2022/01/19 08:34:52;;;;;;;32.97;19.63;;;;;;;-1.15;100.00;97168.19;5068193;28;20450;-76
2022/01/19 08:37:17;;;;;;;32.90;19.10;;;;;;;-1.01;100.00;97171.03;5077664;28;20556;-76
2022/01/19 08:39:49;;;;;;;29.93;19.30;;;;;;;-1.01;100.00;97171.88;5053056;28;20473;-77
2022/01/19 08:42:15;;;;;;;32.57;20.20;;;;;;;-0.96;100.00;97175.09;5061618;28;20514;-77
2022/01/19 08:44:42;;;;;;;28.77;18.50;;;;;;;-1.05;100.00;97178.06;5061740;28;20497;-76
2022/01/19 08:47:16;;;;;;;31.40;19.50;;;;;;;-0.97;100.00;97176.00;5060042;28;21092;-77
2022/01/19 08:50:04;;;;;;;32.00;18.13;;;;;;;-0.68;100.00;97179.06;5064659;28;20470;-77
2022/01/19 08:52:39;;;;;;;29.60;18.93;;;;;;;-0.37;100.00;97168.22;5072607;28;20455;-77
2022/01/19 08:55:15;;;;;;;28.97;17.77;;;;;;;-0.26;100.00;97166.00;5049322;28;20477;-77
2022/01/19 08:57:42;;;;;;;29.63;19.17;;;;;;;0.43;100.00;97164.50;5054232;28;20460;-76
2022/01/19 09:00:11;;;;;;;31.07;19.83;;;;;;;0.92;100.00;97162.91;5060940;28;21022;-76
2022/01/19 09:02:37;;;;;;;30.27;18.20;;;;;;;1.45;100.00;97155.06;5063081;28;20929;-77
2022/01/19 09:05:03;;;;;;;30.57;18.57;;;;;;;2.07;100.00;97154.25;5064214;28;20493;-77
2022/01/19 09:07:29;;;;;;;26.20;16.10;;;;;;;2.53;98.67;97150.88;5054312;28;20032;-77
2022/01/19 09:09:55;;;;;;;27.90;18.00;;;;;;;2.65;96.57;97147.59;5054192;28;20496;-76
2022/01/19 09:12:21;;;;;;;27.90;15.87;;;;;;;3.07;94.46;97152.03;5051985;28;20032;-77
2022/01/19 09:14:46;;;;;;;23.83;16.60;;;;;;;2.89;95.04;97154.88;5056728;28;20416;-77
2022/01/19 09:17:12;;;;;;;28.27;17.40;;;;;;;3.20;92.04;97146.94;5050011;28;20068;-77
2022/01/19 09:19:39;;;;;;;25.07;16.10;;;;;;;3.74;88.36;97143.69;5062705;28;20032;-77
2022/01/19 09:22:10;;;;;;;23.20;15.30;;;;;;;3.98;86.67;97147.38;5057072;28;20043;-77
2022/01/19 09:24:39;;;;;;;27.23;15.77;;;;;;;3.95;84.49;97144.13;5069217;28;20036;-77
2022/01/19 09:27:08;;;;;;;25.23;15.70;;;;;;;3.83;85.09;97145.72;5052483;28;20396;-77
2022/01/19 09:29:38;;;;;;;20.90;14.03;;;;;;;4.37;82.28;97137.97;5053983;28;20032;-77
2022/01/19 09:32:08;;;;;;;23.80;15.40;;;;;;;3.63;84.62;97138.31;5053580;28;20028;-77
2022/01/19 09:34:34;;;;;;;20.43;14.07;;;;;;;4.28;82.30;97135.13;5088801;28;20071;-77
2022/01/19 09:37:00;;;;;;;19.53;13.60;;;;;;;4.41;82.19;97136.00;5062004;28;20030;-77
2022/01/19 09:39:26;;;;;;;25.10;15.03;;;;;;;4.53;82.36;97134.34;5036270;28;20028;-77
2022/01/19 09:41:54;;;;;;;44.60;26.10;;;;;;;4.34;82.62;97140.75;5039778;28;20039;-77
2022/01/19 09:44:23;;;;;;;31.70;18.47;;;;;;;3.77;84.34;97149.53;5040341;28;20031;-77
2022/01/19 09:46:51;;;;;;;31.37;18.50;;;;;;;3.99;83.04;97149.06;5082614;28;20033;-77
2022/01/19 09:49:18;;;;;;;44.20;25.40;;;;;;;4.18;83.83;97138.28;5047646;28;20029;-77
2022/01/19 09:51:46;;;;;;;22.40;13.57;;;;;;;4.71;81.56;97133.16;5044723;28;20032;-77
2022/01/19 09:54:21;;;;;;;35.10;21.53;;;;;;;3.86;83.06;97142.94;5049172;28;20092;-77
2022/01/19 09:56:48;;;;;;;26.00;14.97;;;;;;;4.38;81.75;97139.63;5043048;28;20808;-77
2022/01/19 09:59:15;;;;;;;23.87;15.10;;;;;;;4.40;79.37;97135.16;5063741;28;20039;-76
2022/01/19 10:01:59;;;;;;;19.37;12.67;;;;;;;4.25;80.65;97136.13;5081220;28;20593;-77
2022/01/19 10:04:33;;;;;;;17.27;11.60;;;;;;;4.24;80.86;97129.28;5063922;28;20560;-77
2022/01/19 10:07:14;;;;;;;20.83;13.47;;;;;;;4.23;80.68;97133.66;5037808;28;20088;-77
2022/01/19 10:09:50;;;;;;;20.07;14.10;;;;;;;4.17;80.72;97131.44;5055984;28;20029;-77
2022/01/19 10:18:18;;;;;;;18.80;12.33;;;;;;;4.78;79.29;97113.59;5064565;28;20028;-77
2022/01/19 10:20:46;;;;;;;20.03;13.43;;;;;;;3.88;81.55;97112.44;5053492;28;20553;-77
2022/01/19 10:23:33;;;;;;;19.83;13.57;;;;;;;4.33;80.67;97102.66;5049967;28;20028;-77
2022/01/19 10:26:00;;;;;;;18.13;12.97;;;;;;;4.84;81.05;97083.69;5071629;28;20044;-77
2022/01/19 10:28:27;;;;;;;19.23;12.80;;;;;;;4.63;80.37;97084.19;5048255;28;20564;-76
2022/01/19 10:30:53;;;;;;;20.80;13.67;;;;;;;4.96;78.29;97072.41;5080635;28;20032;-77
2022/01/19 10:33:19;;;;;;;20.70;13.23;;;;;;;4.83;77.62;97062.00;5079797;28;20070;-77
2022/01/19 10:35:49;;;;;;;17.43;12.20;;;;;;;5.02;77.90;97063.34;5059817;28;20070;-77
2022/01/19 10:38:28;;;;;;;20.50;13.30;;;;;;;4.66;77.20;97067.50;5063409;28;20036;-77
2022/01/19 10:40:54;;;;;;;19.27;12.33;;;;;;;4.47;80.04;97062.69;5035627;28;20025;-77
2022/01/19 10:43:46;;;;;;;16.77;11.07;;;;;;;4.45;78.22;97051.50;5046777;28;20108;-77
2022/01/19 10:46:31;;;;;;;18.70;11.90;;;;;;;4.66;78.01;97054.47;5062698;28;20674;-77
2022/01/19 10:49:02;;;;;;;17.03;11.37;;;;;;;5.01;77.96;97046.88;5055108;28;20055;-77
2022/01/19 10:51:34;;;;;;;16.60;11.63;;;;;;;4.89;77.90;97039.88;5060444;28;20044;-77
2022/01/19 10:54:16;;;;;;;18.70;12.20;;;;;;;4.89;76.15;97043.31;5053071;28;20024;-77
2022/01/19 10:56:45;;;;;;;16.73;10.40;;;;;;;4.82;76.75;97036.03;5048304;28;20056;-77
2022/01/19 10:59:14;;;;;;;16.57;9.40;;;;;;;4.58;78.28;97033.31;5064112;28;20023;-77
2022/01/19 11:01:44;;;;;;;16.33;10.50;;;;;;;5.04;76.90;97035.41;5063820;28;20447;-77
2022/01/19 11:04:24;;;;;;;15.47;9.57;;;;;;;5.10;76.08;97030.63;5071333;28;20028;-77
2022/01/19 11:06:56;;;;;;;14.20;9.50;;;;;;;5.01;77.12;97023.41;5068110;28;20045;-77
2022/01/19 11:09:25;;;;;;;15.20;9.40;;;;;;;5.31;76.74;97028.28;5062940;28;20090;-76
2022/01/19 11:11:53;;;;;;;16.07;10.50;;;;;;;5.36;76.73;97026.16;5056248;28;20519;-77
2022/01/19 11:14:19;;;;;;;16.40;10.77;;;;;;;5.28;74.23;97018.06;5072923;28;20059;-76
2022/01/19 11:16:45;;;;;;;14.67;9.50;;;;;;;5.24;75.04;97024.44;5057746;28;20074;-77
2022/01/19 11:19:12;;;;;;;18.30;10.50;;;;;;;5.59;73.55;97015.91;5064135;28;20043;-77
2022/01/19 11:22:09;;;;;;;15.10;10.33;;;;;;;6.24;70.29;97005.09;5063993;28;20089;-77
2022/01/19 11:25:17;;;;;;;14.57;9.33;;;;;;;6.07;72.20;97001.13;5076834;28;20048;-77
2022/01/19 11:27:46;;;;;;;15.63;9.97;;;;;;;6.30;71.42;96991.56;5051461;28;20062;-75
2022/01/19 11:30:33;;;;;;;18.13;8.97;;;;;;;5.95;70.54;96983.75;5046398;28;20074;-77
2022/01/19 11:33:23;;;;;;;15.40;9.07;;;;;;;5.76;71.42;96968.53;5052638;28;20060;-76
2022/01/19 11:36:11;;;;;;;12.40;8.40;;;;;;;6.41;69.33;96966.44;5049256;28;20131;-76
2022/01/19 11:38:40;;;;;;;15.37;9.10;;;;;;;6.16;71.60;96970.88;5048195;28;20048;-76
2022/01/19 11:41:08;;;;;;;14.87;9.10;;;;;;;6.71;69.69;96961.50;5058012;28;20486;-75
2022/01/19 11:43:37;;;;;;;13.93;8.93;;;;;;;6.31;70.58;96956.69;5059824;28;20083;-76
2022/01/19 11:46:24;;;;;;;12.30;8.20;;;;;;;6.57;69.95;96957.34;5059378;28;20024;-76
2022/01/19 11:48:50;;;;;;;12.80;8.63;;;;;;;6.02;69.83;96950.19;5057375;28;20040;-76
2022/01/19 11:51:36;;;;;;;14.07;8.97;;;;;;;6.32;68.98;96942.66;5062071;28;20051;-76
2022/01/19 11:54:10;;;;;;;14.90;8.67;;;;;;;6.40;67.53;96941.25;5052233;28;20661;-76
2022/01/19 11:56:58;;;;;;;13.10;7.60;;;;;;;6.37;68.14;96932.72;5059572;28;20551;-77
2022/01/19 11:59:44;;;;;;;13.17;7.53;;;;;;;6.71;68.06;96930.16;5070895;28;20036;-77
2022/01/19 12:02:32;;;;;;;11.57;7.37;;;;;;;6.37;67.35;96924.88;5043542;28;20040;-76
2022/01/19 12:04:58;;;;;;;13.97;7.47;;;;;;;6.99;65.95;96917.53;5072715;28;20123;-76
2022/01/19 12:07:40;;;;;;;14.07;7.50;;;;;;;6.98;67.33;96919.31;5048375;28;20096;-77
2022/01/19 12:10:30;;;;;;;15.10;7.70;;;;;;;6.55;65.82;96925.25;5057587;28;20111;-77
2022/01/19 12:16:09;;;;;;;12.33;7.17;;;;;;;6.84;66.83;96909.09;5082938;28;20033;-76
2022/01/19 12:18:44;;;;;;;13.00;8.23;;;;;;;6.41;68.22;96914.19;5060293;28;20597;-77
2022/01/19 12:21:13;;;;;;;10.03;6.97;;;;;;;7.04;65.95;96899.69;5060450;28;20035;-76
2022/01/19 12:23:40;;;;;;;10.90;7.03;;;;;;;7.00;64.74;96900.88;5046004;28;20040;-77
2022/01/19 12:26:09;;;;;;;12.27;7.17;;;;;;;7.12;65.57;96899.94;5063818;28;20029;-77
2022/01/19 12:28:45;;;;;;;14.83;9.20;;;;;;;7.32;66.35;96896.56;5046430;28;20032;-76
2022/01/19 12:31:26;;;;;;;13.60;7.67;;;;;;;6.54;66.56;96910.53;5050363;28;20040;-77
2022/01/19 12:34:04;;;;;;;11.33;7.60;;;;;;;6.18;68.56;96900.25;5074307;28;20039;-76
2022/01/19 12:36:47;;;;;;;13.67;8.63;;;;;;;6.97;68.03;96888.88;5075431;28;20029;-77
2022/01/19 12:39:25;;;;;;;12.30;7.78;;;;;;;7.11;67.63;96887.81;5066397;28;20489;-77
2022/01/19 12:42:07;;;;;;;11.50;7.07;;;;;;;7.14;66.31;96889.31;5053256;28;20047;-77
2022/01/19 12:44:50;;;;;;;12.80;7.43;;;;;;;7.17;65.97;96886.47;5049266;28;20034;-76
2022/01/19 12:47:28;;;;;;;10.73;7.03;;;;;;;6.96;66.85;96879.38;5056272;28;20033;-77
2022/01/19 12:49:53;;;;;;;12.87;8.13;;;;;;;6.76;67.69;96878.31;5034376;28;20031;-77
2022/01/19 12:52:21;;;;;;;17.80;9.87;;;;;;;6.76;67.78;96877.50;5041984;28;20036;-77
2022/01/19 12:54:47;;;;;;;31.83;17.97;;;;;;;6.87;68.04;96874.03;5050741;28;20115;-77
2022/01/19 12:57:15;;;;;;;18.00;11.17;;;;;;;6.23;69.16;96885.06;5059762;28;20047;-77
2022/01/19 12:59:46;;;;;;;12.47;7.53;;;;;;;6.54;67.39;96876.56;5058292;28;20147;-77
2022/01/19 13:02:15;;;;;;;11.40;7.10;;;;;;;6.39;70.29;96875.13;5084093;28;20036;-77
2022/01/19 13:04:47;;;;;;;10.97;7.03;;;;;;;7.08;68.35;96867.13;5063174;28;20032;-77
2022/01/19 13:07:20;;;;;;;13.70;7.00;;;;;;;6.50;70.10;96864.66;5045771;28;20033;-77
2022/01/19 13:12:47;;;;;;;11.63;6.20;;;;;;;5.61;72.30;96860.91;5078641;28;20093;-77